Time;durP1;ratioP1;P1;durP2;ratioP2;P2;SDS_P1;SDS_P2;PMS_P1;PMS_P2;Temp;Humidity;BMP_temperature;BMP_pressure;BME280_temperature;BME280_humidity;BME280_pressure;Samples;Min_cycle;Max_cycle;Signal;HPM_P1;HPM_P2
2022/01/27 00:05:25;;;;;;;44.70;22.52;;;;;;;2.67;82.05;101054.88;5047853;28;20036;-83
2022/01/27 00:10:52;;;;;;;44.08;24.05;;;;;;;3.00;80.68;101047.53;5046898;28;20029;-83
2022/01/27 00:13:23;;;;;;;45.90;24.00;;;;;;;2.70;81.66;101044.78;5046701;28;20090;-84
2022/01/27 00:16:18;;;;;;;47.75;24.35;;;;;;;2.99;79.86;101035.91;5043879;28;20029;-83
2022/01/27 00:18:47;;;;;;;47.78;26.85;;;;;;;2.96;80.97;101040.84;5046403;28;20540;-83
2022/01/27 00:21:14;;;;;;;52.33;23.23;;;;;;;2.74;81.14;101038.00;5048091;28;20040;-82
2022/01/27 00:23:41;;;;;;;44.58;25.17;;;;;;;2.79;80.90;101019.44;5047534;28;20506;-83
2022/01/27 00:26:07;;;;;;;42.83;23.25;;;;;;;2.58;82.17;101029.03;5047887;28;20029;-83
2022/01/27 00:28:33;;;;;;;40.72;25.13;;;;;;;3.05;80.18;101026.28;5046355;28;20080;-84
2022/01/27 00:30:58;;;;;;;45.15;25.10;;;;;;;3.02;80.32;101029.34;5047927;28;20033;-84
2022/01/27 00:33:24;;;;;;;43.75;22.95;;;;;;;2.73;80.96;101025.53;5047014;28;20044;-83
2022/01/27 00:35:51;;;;;;;37.47;21.00;;;;;;;2.92;80.01;101016.97;5047618;28;20537;-84
2022/01/27 00:38:16;;;;;;;47.45;24.67;;;;;;;2.78;79.96;101007.00;5047396;28;20040;-83
2022/01/27 00:40:41;;;;;;;43.40;22.33;;;;;;;2.77;79.23;101006.16;5045665;28;20021;-82
2022/01/27 00:43:06;;;;;;;40.97;23.30;;;;;;;2.48;80.17;100996.97;5047496;28;20037;-84
2022/01/27 00:45:33;;;;;;;41.22;22.33;;;;;;;2.91;79.23;100980.25;5046816;28;20495;-83
2022/01/27 00:48:02;;;;;;;47.28;23.50;;;;;;;2.28;81.44;100997.44;5046134;28;20098;-83
2022/01/27 00:50:28;;;;;;;43.78;25.27;;;;;;;2.43;80.28;100989.44;5046722;28;20111;-82
2022/01/27 00:52:56;;;;;;;53.22;24.73;;;;;;;2.60;80.15;100994.69;5047403;28;20123;-85
2022/01/27 00:55:23;;;;;;;47.33;25.10;;;;;;;2.30;80.29;100975.72;5044906;28;20513;-84
2022/01/27 00:58:07;;;;;;;42.92;23.67;;;;;;;2.66;79.96;100969.72;5079710;28;20774;-83
2022/01/27 01:00:37;;;;;;;41.78;23.75;;;;;;;2.57;79.60;100973.50;5047444;28;20071;-83
2022/01/27 01:03:10;;;;;;;43.08;24.58;;;;;;;2.46;79.65;100974.78;5045423;28;20037;-82
2022/01/27 01:09:02;;;;;;;44.78;23.90;;;;;;;2.88;78.44;100964.47;5047022;28;20124;-83
2022/01/27 01:16:28;;;;;;;55.58;24.73;;;;;;;2.35;79.68;100962.56;5045645;28;20033;-85
2022/01/27 01:19:07;;;;;;;40.85;23.42;;;;;;;2.26;80.56;100960.97;5062545;28;20500;-85
2022/01/27 01:29:27;;;;;;;39.92;24.95;;;;;;;2.68;78.92;100970.34;5042895;28;20148;-86
2022/01/27 01:30:09;;;;;;;49.30;24.75;;;;;;;2.45;79.15;100981.16;5045810;28;20443;-85
2022/01/27 01:32:48;;;;;;;49.60;27.33;;;;;;;2.45;79.23;100976.63;5046438;28;20059;-84
2022/01/27 01:35:14;;;;;;;44.97;24.40;;;;;;;2.70;77.72;100948.66;5047883;28;20021;-84
2022/01/27 01:37:42;;;;;;;40.83;21.95;;;;;;;2.33;78.89;100943.06;5045324;28;20111;-85
2022/01/27 01:40:11;;;;;;;49.85;26.55;;;;;;;2.57;79.08;100951.97;5046981;28;20097;-85
2022/01/27 01:42:37;;;;;;;51.17;23.35;;;;;;;2.26;79.79;100951.03;5043204;28;20029;-85
2022/01/27 01:45:07;;;;;;;43.00;24.15;;;;;;;2.35;79.69;100946.44;5046903;28;20501;-85
2022/01/27 01:47:32;;;;;;;41.08;23.50;;;;;;;2.16;80.65;100956.66;5046666;28;20064;-85
2022/01/27 01:49:58;;;;;;;43.13;26.33;;;;;;;2.15;80.22;100954.16;5046075;28;20087;-84
2022/01/27 01:52:24;;;;;;;46.28;25.85;;;;;;;2.15;80.32;100940.69;5047150;28;20350;-84
2022/01/27 01:54:54;;;;;;;52.75;26.35;;;;;;;2.17;80.09;100926.06;5045576;28;20025;-85
2022/01/27 01:57:19;;;;;;;45.65;27.33;;;;;;;2.46;79.76;100939.78;5043986;28;20090;-86
2022/01/27 01:59:44;;;;;;;43.58;23.42;;;;;;;2.34;79.56;100931.28;5060253;28;20467;-85
2022/01/27 02:02:12;;;;;;;48.72;27.40;;;;;;;2.54;79.14;100931.59;5046865;28;20104;-84
2022/01/27 02:04:38;;;;;;;43.25;21.33;;;;;;;2.51;78.85;100920.38;5046629;28;20021;-85
2022/01/27 02:07:10;;;;;;;45.15;24.15;;;;;;;2.05;80.53;100922.94;5044798;28;20495;-85
2022/01/27 02:18:03;;;;;;;43.42;24.58;;;;;;;2.16;80.31;100924.38;5046912;28;20351;-85
2022/01/27 02:20:33;;;;;;;45.28;23.35;;;;;;;2.40;80.22;100910.91;5045361;28;20062;-86
2022/01/27 02:22:58;;;;;;;56.50;27.25;;;;;;;2.16;80.31;100908.22;5047790;28;20032;-85
2022/01/27 02:25:24;;;;;;;49.05;21.35;;;;;;;2.52;79.45;100928.25;5045035;28;20119;-86
2022/01/27 02:27:54;;;;;;;46.65;24.77;;;;;;;2.55;79.63;100930.59;5047266;28;20435;-84
2022/01/27 02:30:19;;;;;;;42.90;23.15;;;;;;;2.36;79.39;100910.41;5047278;28;20045;-86
2022/01/27 02:32:45;;;;;;;42.83;21.55;;;;;;;2.52;79.06;100905.91;5046765;28;20063;-85
2022/01/27 02:35:11;;;;;;;38.15;22.00;;;;;;;2.59;79.34;100881.75;5048617;28;20021;-86
2022/01/27 02:37:36;;;;;;;40.60;21.20;;;;;;;2.53;78.65;100880.63;5049522;28;20048;-85
2022/01/27 02:40:02;;;;;;;44.22;19.65;;;;;;;2.50;79.15;100875.63;5050844;28;20353;-86
2022/01/27 02:42:33;;;;;;;34.95;19.42;;;;;;;2.23;80.15;100897.56;5045795;28;20112;-86
2022/01/27 02:45:21;;;;;;;45.55;23.08;;;;;;;2.34;80.48;100904.34;5048355;28;20441;-83
2022/01/27 02:47:46;;;;;;;36.60;19.30;;;;;;;2.53;79.71;100903.03;5065804;28;20040;-86
2022/01/27 02:50:12;;;;;;;45.80;22.10;;;;;;;2.33;80.05;100894.63;5066438;28;20104;-85
2022/01/27 02:52:38;;;;;;;50.00;23.35;;;;;;;2.22;80.19;100891.34;5069212;28;20056;-84
2022/01/27 02:55:03;;;;;;;47.65;21.60;;;;;;;2.37;79.99;100876.25;5066484;28;20107;-86
2022/01/27 02:57:29;;;;;;;36.38;19.88;;;;;;;2.22;80.94;100885.13;5067865;28;20086;-84
2022/01/27 02:59:54;;;;;;;42.80;21.55;;;;;;;2.60;78.96;100870.81;5068991;28;20027;-85
2022/01/27 03:02:19;;;;;;;51.35;22.67;;;;;;;2.48;79.72;100877.66;5070797;28;20032;-84
2022/01/27 03:04:45;;;;;;;43.13;20.60;;;;;;;2.42;79.92;100868.47;5067625;28;20094;-84
2022/01/27 03:07:11;;;;;;;47.17;23.48;;;;;;;2.12;81.35;100861.16;5070439;28;20032;-83
2022/01/27 03:09:37;;;;;;;45.80;23.52;;;;;;;2.45;80.23;100858.19;5070150;28;20028;-85
2022/01/27 03:12:06;;;;;;;41.95;22.77;;;;;;;2.36;80.62;100861.94;5069202;28;20099;-85
2022/01/27 03:14:32;;;;;;;52.58;22.48;;;;;;;2.48;80.65;100866.91;5086159;28;20024;-85
2022/01/27 03:16:59;;;;;;;39.35;21.58;;;;;;;2.19;80.30;100845.97;5069089;28;20054;-85
2022/01/27 03:19:26;;;;;;;42.70;20.92;;;;;;;2.20;80.72;100836.88;5068540;28;20039;-85
2022/01/27 03:21:53;;;;;;;41.17;21.17;;;;;;;2.27;80.23;100841.53;5048532;28;20017;-84
2022/01/27 03:24:23;;;;;;;54.10;24.48;;;;;;;2.41;80.67;100850.63;5049804;28;20057;-85
2022/01/27 03:26:49;;;;;;;39.80;22.92;;;;;;;2.71;79.53;100844.44;5048773;28;20045;-85
2022/01/27 03:29:17;;;;;;;44.97;21.50;;;;;;;2.42;79.85;100831.59;5048428;28;20565;-84
2022/01/27 03:31:44;;;;;;;45.22;19.80;;;;;;;2.49;80.18;100838.94;5049734;28;20112;-85
2022/01/27 03:34:09;;;;;;;40.63;19.83;;;;;;;2.31;81.04;100848.22;5044947;28;20114;-84
2022/01/27 03:36:35;;;;;;;47.42;23.98;;;;;;;2.29;81.73;100836.78;5050708;28;20445;-84
2022/01/27 03:39:00;;;;;;;38.35;21.33;;;;;;;2.24;81.55;100834.63;5048642;28;20037;-85
2022/01/27 03:41:31;;;;;;;37.28;20.27;;;;;;;2.25;80.61;100851.63;5050561;28;20419;-84
2022/01/27 03:43:56;;;;;;;41.20;20.05;;;;;;;2.49;80.13;100852.41;5048018;28;20029;-84
2022/01/27 03:46:22;;;;;;;56.17;20.95;;;;;;;2.64;79.90;100844.34;5053866;28;20036;-84
2022/01/27 03:48:47;;;;;;;44.25;21.35;;;;;;;2.66;79.11;100842.31;5069520;28;20021;-86
2022/01/27 03:51:12;;;;;;;47.25;23.42;;;;;;;2.36;80.54;100853.88;5051810;28;20384;-85
2022/01/27 03:53:38;;;;;;;36.15;22.17;;;;;;;2.86;79.20;100844.44;5050195;28;20483;-85
2022/01/27 03:56:03;;;;;;;37.40;19.17;;;;;;;2.66;79.75;100826.16;5046843;28;20028;-84
2022/01/27 03:58:29;;;;;;;37.72;20.70;;;;;;;2.35;80.54;100819.06;5049809;28;20488;-85
2022/01/27 04:00:54;;;;;;;37.90;19.00;;;;;;;2.76;79.71;100810.56;5048253;28;20029;-85
2022/01/27 04:06:08;;;;;;;32.75;19.92;;;;;;;2.40;81.09;100816.69;5048936;28;20043;-85
2022/01/27 04:08:37;;;;;;;39.70;21.52;;;;;;;2.61;80.37;100815.09;5047773;28;20036;-84
2022/01/27 04:11:08;;;;;;;51.00;23.95;;;;;;;2.24;81.59;100804.22;5048926;28;20092;-85
2022/01/27 04:13:34;;;;;;;38.28;19.85;;;;;;;2.25;81.64;100808.56;5047468;28;20082;-83
2022/01/27 04:15:59;;;;;;;38.67;21.20;;;;;;;2.49;81.16;100809.34;5050111;28;20100;-84
2022/01/27 04:18:25;;;;;;;40.08;21.73;;;;;;;2.41;81.08;100783.34;5048328;28;20032;-86
2022/01/27 04:20:50;;;;;;;37.00;20.35;;;;;;;2.61;81.06;100797.09;5048795;28;20052;-84
2022/01/27 04:23:18;;;;;;;40.95;22.75;;;;;;;2.36;81.22;100783.88;5048603;28;20067;-84
2022/01/27 04:25:43;;;;;;;45.40;22.75;;;;;;;2.66;80.12;100786.59;5046959;28;20044;-86
2022/01/27 04:28:12;;;;;;;38.40;20.50;;;;;;;2.35;81.61;100773.31;5049160;28;20083;-84
2022/01/27 04:30:37;;;;;;;34.38;18.63;;;;;;;2.31;81.53;100770.16;5048437;28;20033;-85
2022/01/27 04:33:04;;;;;;;41.35;21.73;;;;;;;2.38;81.17;100771.06;5053247;28;20087;-86
2022/01/27 04:35:34;;;;;;;41.83;24.25;;;;;;;2.16;82.37;100772.81;5051727;28;20476;-85
2022/01/27 04:40:58;;;;;;;50.80;21.48;;;;;;;2.60;80.92;100779.28;5052297;28;20033;-85
2022/01/27 04:43:51;;;;;;;37.63;21.17;;;;;;;2.44;81.40;100773.03;5051678;28;20048;-84
2022/01/27 04:46:28;;;;;;;36.35;20.50;;;;;;;2.44;81.97;100759.56;5052466;28;20091;-86
2022/01/27 04:48:58;;;;;;;38.88;20.70;;;;;;;2.19;82.81;100759.03;5051590;28;20111;-85
2022/01/27 04:51:24;;;;;;;35.00;19.02;;;;;;;2.36;82.52;100740.00;5052349;28;20063;-86
2022/01/27 04:56:21;;;;;;;41.22;20.95;;;;;;;2.70;80.69;100724.28;5050273;28;20071;-84
2022/01/27 05:02:05;;;;;;;42.35;21.95;;;;;;;2.48;81.77;100706.22;5051681;28;20515;-85
2022/01/27 05:04:34;;;;;;;40.67;23.00;;;;;;;2.21;82.75;100698.63;5050306;28;20059;-84
2022/01/27 05:06:59;;;;;;;47.95;22.35;;;;;;;2.74;81.48;100693.25;5052008;28;20495;-86
2022/01/27 05:09:25;;;;;;;40.63;15.65;;;;;;;2.60;80.99;100708.41;5050136;28;20043;-85
2022/01/27 05:11:55;;;;;;;54.08;19.05;;;;;;;2.71;81.06;100709.78;5052252;28;20032;-84
2022/01/27 05:14:23;;;;;;;35.88;18.20;;;;;;;2.63;81.16;100691.88;5050831;28;20514;-85
2022/01/27 05:16:49;;;;;;;39.97;18.73;;;;;;;2.61;81.25;100697.44;5051099;28;20025;-84
2022/01/27 05:19:15;;;;;;;39.65;19.45;;;;;;;2.63;81.52;100691.88;5050408;28;20090;-85
2022/01/27 05:21:41;;;;;;;36.72;20.80;;;;;;;2.78;81.55;100673.00;5050654;28;20044;-86
2022/01/27 05:24:07;;;;;;;38.05;20.08;;;;;;;2.71;80.99;100672.91;5052153;28;20052;-85
2022/01/27 05:26:33;;;;;;;41.88;19.73;;;;;;;2.86;80.42;100691.72;5049277;28;20094;-85
2022/01/27 05:29:00;;;;;;;37.35;21.17;;;;;;;2.79;80.54;100690.81;5051239;28;20036;-85
2022/01/27 05:31:25;;;;;;;33.13;15.77;;;;;;;3.23;80.14;100677.38;5047923;28;20059;-84
2022/01/27 05:33:50;;;;;;;32.40;16.35;;;;;;;2.89;81.03;100677.88;5050333;28;20396;-84
2022/01/27 05:36:31;;;;;;;36.75;18.60;;;;;;;3.08;80.10;100690.91;5051484;28;20033;-84
2022/01/27 05:38:57;;;;;;;31.58;15.70;;;;;;;3.20;80.36;100685.81;5050823;28;20839;-84
2022/01/27 05:41:22;;;;;;;41.60;17.67;;;;;;;2.93;81.02;100675.63;5051912;28;20047;-84
2022/01/27 05:43:48;;;;;;;32.45;18.55;;;;;;;2.76;81.24;100673.19;5049999;28;20696;-86
2022/01/27 05:46:13;;;;;;;39.97;18.83;;;;;;;2.88;80.74;100660.06;5052229;28;20112;-86
2022/01/27 05:48:38;;;;;;;38.28;17.13;;;;;;;3.06;80.74;100634.50;5050343;28;20025;-85
2022/01/27 05:51:04;;;;;;;28.15;16.95;;;;;;;3.40;80.29;100623.19;5051992;28;20017;-85
2022/01/27 05:53:32;;;;;;;29.45;16.42;;;;;;;3.62;78.80;100624.78;5050689;28;20021;-86
2022/01/27 05:55:58;;;;;;;39.80;18.15;;;;;;;3.45;80.02;100628.81;5050661;28;20069;-85
2022/01/27 05:58:23;;;;;;;34.75;17.38;;;;;;;3.04;80.29;100625.78;5051486;28;20025;-84
2022/01/27 06:00:49;;;;;;;41.05;16.95;;;;;;;2.98;80.65;100627.41;5049435;28;20024;-86
2022/01/27 06:03:14;;;;;;;32.10;15.52;;;;;;;2.98;81.49;100619.31;5051064;28;20036;-85
2022/01/27 06:05:39;;;;;;;34.13;16.33;;;;;;;3.12;81.10;100638.28;5050529;28;20025;-84
2022/01/27 06:08:05;;;;;;;31.38;17.55;;;;;;;3.31;80.90;100644.91;5051510;28;20137;-86
2022/01/27 06:10:30;;;;;;;32.05;19.80;;;;;;;3.48;79.16;100634.66;5049705;28;20048;-85
2022/01/27 06:12:56;;;;;;;37.90;17.98;;;;;;;3.15;80.57;100640.63;5051204;28;20032;-85
2022/01/27 06:15:23;;;;;;;32.75;18.05;;;;;;;3.17;80.75;100637.72;5049774;28;20036;-86
2022/01/27 06:17:49;;;;;;;38.40;20.00;;;;;;;2.98;81.20;100626.56;5049388;28;20026;-86
2022/01/27 06:20:15;;;;;;;31.38;16.33;;;;;;;3.03;81.21;100626.84;5051723;28;20021;-83
2022/01/27 06:22:42;;;;;;;31.35;14.73;;;;;;;3.11;81.11;100618.59;5049866;28;20108;-85
2022/01/27 06:25:08;;;;;;;32.40;18.65;;;;;;;2.95;81.58;100608.91;5050757;28;20025;-86
2022/01/27 06:27:34;;;;;;;30.95;15.32;;;;;;;2.83;81.73;100605.91;5048290;28;20049;-86
2022/01/27 06:29:59;;;;;;;36.30;19.35;;;;;;;3.11;81.07;100610.50;5051417;28;20052;-85
2022/01/27 06:32:24;;;;;;;36.45;18.63;;;;;;;3.13;80.82;100600.34;5062962;28;20132;-86
2022/01/27 06:34:50;;;;;;;30.60;17.50;;;;;;;2.91;82.10;100613.84;5045911;28;20478;-84
2022/01/27 06:40:25;;;;;;;31.33;18.60;;;;;;;3.04;82.29;100593.44;5045557;28;20113;-85
2022/01/27 06:42:51;;;;;;;33.40;18.23;;;;;;;3.14;81.94;100585.88;5050069;28;20037;-85
2022/01/27 06:45:16;;;;;;;32.05;17.83;;;;;;;3.17;81.80;100579.28;5048379;28;20025;-85
2022/01/27 06:47:41;;;;;;;34.95;20.75;;;;;;;3.07;82.24;100547.25;5048635;28;20036;-84
2022/01/27 06:50:07;;;;;;;34.53;18.63;;;;;;;3.06;82.15;100550.97;5049707;28;20475;-86
2022/01/27 06:52:33;;;;;;;33.58;17.48;;;;;;;2.99;82.74;100542.03;5047704;28;20442;-86
2022/01/27 06:54:58;;;;;;;33.60;17.92;;;;;;;3.00;82.67;100554.44;5054169;28;20018;-83
2022/01/27 06:57:24;;;;;;;40.53;18.92;;;;;;;3.37;81.62;100557.84;5047576;28;20025;-86
2022/01/27 06:59:50;;;;;;;33.00;16.90;;;;;;;3.33;81.66;100583.53;5048906;28;20060;-83
2022/01/27 07:02:16;;;;;;;33.50;17.73;;;;;;;3.33;82.01;100586.22;5048324;28;20081;-85
2022/01/27 07:07:44;;;;;;;27.98;14.82;;;;;;;3.48;80.82;100585.28;5050770;28;20106;-86
2022/01/27 07:10:10;;;;;;;29.48;15.93;;;;;;;3.16;81.97;100569.50;5047795;28;20041;-84
2022/01/27 07:12:38;;;;;;;30.35;13.82;;;;;;;3.57;81.26;100584.09;5049282;28;20044;-85
2022/01/27 07:15:04;;;;;;;30.23;18.63;;;;;;;3.54;81.40;100579.09;5047926;28;20469;-86
2022/01/27 07:17:30;;;;;;;35.35;17.05;;;;;;;3.40;82.13;100574.66;5050176;28;20036;-85
2022/01/27 07:19:55;;;;;;;26.00;15.05;;;;;;;3.53;80.58;100574.75;5055182;28;20025;-85
2022/01/27 07:22:20;;;;;;;35.72;18.25;;;;;;;3.61;81.05;100568.34;5068060;28;20049;-83
2022/01/27 07:24:46;;;;;;;34.45;16.73;;;;;;;3.70;80.38;100577.94;5067692;28;20059;-87
2022/01/27 07:27:12;;;;;;;39.47;18.60;;;;;;;3.73;80.54;100574.84;5066962;28;20053;-86
2022/01/27 07:29:38;;;;;;;31.02;17.52;;;;;;;3.61;81.43;100557.56;5069524;28;20025;-86
2022/01/27 07:32:03;;;;;;;27.80;14.60;;;;;;;3.43;83.34;100556.22;5068548;28;20024;-93
2022/01/27 07:34:28;;;;;;;32.88;17.60;;;;;;;3.76;81.30;100551.22;5070069;28;20044;-84
2022/01/27 07:36:57;;;;;;;31.73;15.90;;;;;;;3.79;82.18;100562.44;5049429;28;20565;-81
2022/01/27 07:39:23;;;;;;;29.02;16.58;;;;;;;3.77;82.60;100556.41;5045510;28;20048;-85
2022/01/27 07:41:49;;;;;;;32.08;15.85;;;;;;;3.55;84.20;100558.34;5043648;28;20025;-85
2022/01/27 07:44:14;;;;;;;35.53;17.50;;;;;;;3.55;84.31;100547.56;5043885;28;20100;-84
2022/01/27 07:46:40;;;;;;;30.25;17.15;;;;;;;3.57;84.41;100556.28;5045433;28;20203;-86
2022/01/27 07:49:05;;;;;;;35.45;18.58;;;;;;;3.93;83.60;100549.84;5042021;28;20036;-85
2022/01/27 07:51:30;;;;;;;31.17;17.67;;;;;;;3.84;83.38;100546.47;5044290;28;20037;-85
2022/01/27 07:53:56;;;;;;;35.05;15.95;;;;;;;3.73;84.17;100539.78;5043558;28;20033;-88
2022/01/27 07:59:05;;;;;;;31.70;17.95;;;;;;;3.84;84.39;100535.66;5045429;28;20384;-85
2022/01/27 08:01:30;;;;;;;32.83;17.25;;;;;;;3.98;83.77;100543.84;5042519;28;20037;-83
2022/01/27 08:03:56;;;;;;;30.30;15.30;;;;;;;3.92;83.59;100556.28;5045611;28;20025;-83
2022/01/27 08:06:21;;;;;;;29.40;17.25;;;;;;;3.81;84.37;100552.28;5046521;28;20025;-82
2022/01/27 08:08:48;;;;;;;33.15;15.95;;;;;;;3.89;84.78;100548.56;5048426;28;20456;-83
2022/01/27 08:11:13;;;;;;;33.92;17.80;;;;;;;4.13;84.09;100556.34;5046890;28;20021;-82
2022/01/27 08:13:38;;;;;;;26.27;16.55;;;;;;;3.87;84.63;100561.44;5048429;28;20020;-84
2022/01/27 08:16:04;;;;;;;36.63;14.85;;;;;;;3.46;87.76;100571.16;5047712;28;20496;-84
2022/01/27 08:18:29;;;;;;;33.10;16.98;;;;;;;3.47;88.05;100572.84;5047286;28;20024;-83
2022/01/27 08:20:55;;;;;;;47.47;18.23;;;;;;;3.89;86.86;100566.63;5048966;28;20500;-82
2022/01/27 08:23:20;;;;;;;24.92;17.48;;;;;;;4.18;85.88;100572.78;5044841;28;20395;-84
2022/01/27 08:25:52;;;;;;;33.13;18.67;;;;;;;3.80;87.32;100564.13;5048082;28;20020;-84
2022/01/27 08:28:28;;;;;;;36.45;17.80;;;;;;;3.90;86.94;100560.19;5045557;28;20075;-83
2022/01/27 08:30:55;;;;;;;33.22;19.45;;;;;;;4.03;86.65;100548.63;5047907;28;20071;-83
2022/01/27 08:33:21;;;;;;;43.10;21.10;;;;;;;3.88;87.18;100556.88;5045651;28;20037;-84
2022/01/27 08:35:46;;;;;;;40.85;18.42;;;;;;;4.04;87.32;100545.75;5046154;28;20112;-84
2022/01/27 08:38:13;;;;;;;34.15;16.80;;;;;;;3.85;87.70;100547.31;5056957;28;20033;-84
2022/01/27 08:40:39;;;;;;;47.15;17.95;;;;;;;3.75;88.20;100544.97;5044571;28;20104;-83
2022/01/27 08:43:05;;;;;;;33.92;17.92;;;;;;;3.89;89.72;100550.44;5035111;28;20079;-83
2022/01/27 08:45:30;;;;;;;35.97;20.60;;;;;;;4.13;87.26;100559.06;5045348;28;20036;-84
2022/01/27 08:48:19;;;;;;;33.55;17.88;;;;;;;3.98;88.19;100551.94;5044247;28;20431;-82
2022/01/27 08:50:51;;;;;;;46.53;18.60;;;;;;;4.01;88.41;100550.72;5047898;28;20048;-84
2022/01/27 08:53:17;;;;;;;31.10;17.02;;;;;;;4.32;87.25;100546.63;5045810;28;20039;-86
2022/01/27 08:55:44;;;;;;;31.70;16.23;;;;;;;3.92;88.58;100540.09;5047478;28;20523;-83
2022/01/27 08:58:10;;;;;;;33.30;15.90;;;;;;;4.07;88.52;100547.19;5045578;28;20041;-82
2022/01/27 09:00:36;;;;;;;46.90;17.70;;;;;;;3.97;89.56;100544.88;5047553;28;20025;-82
2022/01/27 09:03:01;;;;;;;27.52;15.35;;;;;;;4.05;89.68;100551.94;5046089;28;20079;-81
2022/01/27 09:05:27;;;;;;;30.55;14.32;;;;;;;4.20;89.18;100539.16;5047234;28;20174;-83
2022/01/27 09:07:56;;;;;;;30.92;14.45;;;;;;;3.93;90.43;100549.84;5045976;28;20037;-83
2022/01/27 09:10:22;;;;;;;24.73;14.30;;;;;;;4.23;88.63;100532.47;5046140;28;20017;-83
2022/01/27 09:12:47;;;;;;;30.17;14.57;;;;;;;4.23;89.34;100529.78;5046760;28;20284;-83
2022/01/27 09:15:12;;;;;;;27.30;14.30;;;;;;;4.15;90.40;100540.78;5054805;28;20028;-82
2022/01/27 09:17:40;;;;;;;23.90;14.48;;;;;;;4.34;89.31;100532.94;5053455;28;20102;-83
2022/01/27 09:20:09;;;;;;;29.50;14.98;;;;;;;4.10;90.79;100538.69;5045801;28;20036;-82
2022/01/27 09:22:36;;;;;;;22.50;15.02;;;;;;;4.26;90.22;100537.50;5045179;28;20087;-82
2022/01/27 09:25:09;;;;;;;29.92;13.43;;;;;;;4.30;90.26;100549.56;5045782;28;20036;-83
2022/01/27 09:27:35;;;;;;;23.75;12.43;;;;;;;3.99;91.49;100537.41;5041333;28;20122;-81
2022/01/27 09:30:00;;;;;;;21.95;11.57;;;;;;;4.40;89.46;100549.16;5045555;28;20029;-80
2022/01/27 09:32:26;;;;;;;49.08;13.85;;;;;;;4.28;89.66;100535.44;5044099;28;20041;-82
2022/01/27 09:34:52;;;;;;;19.88;12.30;;;;;;;4.48;89.35;100539.19;5046186;28;20014;-79
2022/01/27 09:37:18;;;;;;;24.75;11.70;;;;;;;4.24;90.38;100534.16;5044255;28;20041;-81
2022/01/27 09:39:44;;;;;;;29.38;12.98;;;;;;;4.25;89.87;100552.00;5045986;28;20017;-83
2022/01/27 09:42:09;;;;;;;23.20;11.50;;;;;;;4.17;90.33;100538.72;5044202;28;20037;-81
2022/01/27 09:44:37;;;;;;;22.35;11.65;;;;;;;4.50;90.79;100537.13;5046236;28;20357;-81
2022/01/27 09:47:09;;;;;;;20.83;11.82;;;;;;;4.29;90.07;100531.69;5045455;28;20045;-80
2022/01/27 09:49:48;;;;;;;17.95;11.38;;;;;;;4.24;91.71;100534.16;5044998;28;20055;-81
2022/01/27 09:52:15;;;;;;;20.13;10.80;;;;;;;4.09;91.65;100526.22;5044484;28;20043;-82
2022/01/27 09:54:40;;;;;;;25.58;11.65;;;;;;;4.04;92.33;100543.03;5043976;28;20036;-81
2022/01/27 09:57:06;;;;;;;24.02;12.07;;;;;;;4.23;93.18;100537.88;5045658;28;20037;-81
2022/01/27 09:59:31;;;;;;;23.75;10.82;;;;;;;4.31;91.54;100543.09;5045303;28;20070;-84
2022/01/27 10:02:01;;;;;;;20.38;10.38;;;;;;;4.32;92.09;100536.69;5045247;28;20055;-81
2022/01/27 10:04:44;;;;;;;21.33;13.70;;;;;;;4.60;91.07;100542.13;5045759;28;20025;-81
2022/01/27 10:07:12;;;;;;;24.17;12.18;;;;;;;4.22;92.52;100530.84;5044354;28;20029;-80
2022/01/27 10:09:37;;;;;;;19.77;9.93;;;;;;;4.38;92.23;100523.38;5045838;28;20048;-80
2022/01/27 10:12:04;;;;;;;19.48;10.98;;;;;;;4.47;91.57;100551.03;5044060;28;20114;-80
2022/01/27 10:14:36;;;;;;;20.40;10.18;;;;;;;4.60;90.75;100534.00;5045515;28;20042;-82
2022/01/27 10:17:10;;;;;;;17.75;8.93;;;;;;;4.26;91.71;100534.78;5045763;28;20068;-81
2022/01/27 10:19:36;;;;;;;16.45;10.10;;;;;;;4.42;92.22;100532.75;5044644;28;20112;-82
2022/01/27 10:22:15;;;;;;;13.57;8.52;;;;;;;4.75;90.37;100529.28;5046382;28;20543;-82
2022/01/27 10:24:41;;;;;;;20.83;9.80;;;;;;;4.64;91.05;100532.56;5044456;28;20526;-82
2022/01/27 10:32:59;;;;;;;13.30;7.43;;;;;;;4.87;90.66;100525.94;5044649;28;20037;-81
2022/01/27 10:35:26;;;;;;;13.18;7.20;;;;;;;4.59;91.31;100524.25;5045367;28;20044;-81
2022/01/27 10:38:18;;;;;;;16.77;7.50;;;;;;;4.78;90.45;100517.19;5043032;28;20047;-82
2022/01/27 10:40:49;;;;;;;13.73;6.65;;;;;;;4.64;92.25;100516.34;5043030;28;20511;-82
2022/01/27 10:43:17;;;;;;;15.18;6.88;;;;;;;4.61;91.20;100514.09;5044548;28;20032;-82
2022/01/27 10:46:19;;;;;;;13.70;7.30;;;;;;;4.96;90.18;100519.28;5043578;28;20489;-81
2022/01/27 10:49:06;;;;;;;14.55;7.25;;;;;;;4.78;91.53;100517.19;5024656;28;20045;-82
2022/01/27 10:51:40;;;;;;;21.10;8.68;;;;;;;4.65;91.60;100516.19;5057241;28;20040;-82
2022/01/27 10:54:09;;;;;;;13.45;8.40;;;;;;;4.61;92.25;100527.59;5043198;28;20166;-82
2022/01/27 10:56:39;;;;;;;13.38;7.03;;;;;;;4.74;92.56;100522.19;5044482;28;20122;-80
2022/01/27 10:59:16;;;;;;;9.65;5.70;;;;;;;4.93;91.51;100508.88;5043179;28;20068;-80
2022/01/27 11:01:43;;;;;;;18.85;8.82;;;;;;;4.63;92.84;100509.31;5043574;28;20052;-81
2022/01/27 11:04:11;;;;;;;18.67;10.32;;;;;;;4.71;93.25;100509.09;5043288;28;20043;-82
2022/01/27 11:06:51;;;;;;;16.88;8.32;;;;;;;4.93;91.92;100498.09;5044047;28;20021;-82
2022/01/27 11:09:18;;;;;;;17.85;8.68;;;;;;;5.19;90.84;100499.09;5041394;28;20029;-83
2022/01/27 11:11:45;;;;;;;17.88;8.18;;;;;;;4.98;91.89;100494.75;5042951;28;20021;-82
2022/01/27 11:14:10;;;;;;;18.67;9.48;;;;;;;5.00;91.00;100503.50;5044305;28;20041;-80
2022/01/27 11:16:41;;;;;;;15.98;8.68;;;;;;;4.78;92.65;100511.78;5042805;28;20420;-81
2022/01/27 11:20:02;;;;;;;16.92;8.32;;;;;;;4.87;92.29;100505.16;5044245;28;20048;-81
2022/01/27 11:22:39;;;;;;;17.50;8.73;;;;;;;4.98;92.21;100510.97;5043263;28;20052;-82
2022/01/27 11:27:27;;;;;;;14.32;7.63;;;;;;;5.16;91.57;100495.97;5043522;28;20829;-81
2022/01/27 11:33:02;;;;;;;12.82;7.32;;;;;;;5.05;91.50;100492.03;5041765;28;20052;-82
2022/01/27 11:35:27;;;;;;;13.63;7.10;;;;;;;5.01;92.56;100489.75;5044733;28;20118;-81
2022/01/27 11:37:55;;;;;;;15.88;7.32;;;;;;;5.24;91.28;100482.25;5042556;28;20120;-81
2022/01/27 11:40:23;;;;;;;16.20;8.50;;;;;;;4.95;91.73;100485.19;5043606;28;20427;-81
2022/01/27 11:42:54;;;;;;;14.98;7.55;;;;;;;4.79;94.29;100481.88;5042743;28;20041;-81
2022/01/27 11:45:22;;;;;;;17.13;8.68;;;;;;;4.91;93.76;100486.66;5058892;28;20072;-80
2022/01/27 11:47:49;;;;;;;13.32;7.53;;;;;;;5.02;93.25;100480.59;5042787;28;20048;-83
2022/01/27 11:51:09;;;;;;;16.38;8.88;;;;;;;4.92;94.61;100474.81;5043832;28;20037;-81
2022/01/27 11:53:14;;;;;;;13.93;7.45;;;;;;;5.13;92.72;100475.59;5050283;28;20041;-82
2022/01/27 11:55:44;;;;;;;15.93;9.15;;;;;;;5.11;92.76;100461.44;5041995;28;20029;-82
2022/01/27 11:58:15;;;;;;;18.63;8.70;;;;;;;5.46;91.08;100463.88;5043941;28;20525;-82
2022/01/27 12:01:00;;;;;;;13.52;6.97;;;;;;;5.61;90.70;100466.28;5043492;28;20032;-80
2022/01/27 12:03:26;;;;;;;19.10;8.52;;;;;;;5.12;93.66;100465.84;5042927;28;20041;-80
2022/01/27 12:06:11;;;;;;;19.58;8.50;;;;;;;5.47;92.23;100459.31;5044168;28;20729;-79
2022/01/27 12:08:36;;;;;;;13.20;7.68;;;;;;;5.43;90.99;100452.66;5042767;28;20116;-85
2022/01/27 12:11:06;;;;;;;16.55;7.32;;;;;;;5.30;92.93;100443.53;5043219;28;20105;-83
2022/01/27 12:16:26;;;;;;;13.93;8.47;;;;;;;5.25;92.54;100449.56;5043314;28;20067;-83
2022/01/27 12:19:12;;;;;;;12.70;6.97;;;;;;;5.17;94.01;100446.25;5022906;28;20603;-83
2022/01/27 12:21:51;;;;;;;11.30;6.75;;;;;;;5.65;90.82;100442.38;5042338;28;20487;-82
2022/01/27 12:24:22;;;;;;;16.77;8.02;;;;;;;5.58;91.44;100441.56;5042942;28;20049;-82
2022/01/27 12:27:00;;;;;;;10.07;5.05;;;;;;;5.57;92.49;100439.91;5042944;28;20045;-82
2022/01/27 12:29:40;;;;;;;12.18;6.78;;;;;;;5.49;93.27;100441.78;5042448;28;20033;-83